Česky Dansk Deutsch English Español Suomi Français Magyar Italiano Nederlands norsk Polski Português svenska Türkçe

 

Het Weer

Bronnoysund / Bronnoy (Noorwegen)

20:20, 16 augustus 2016 (GMT)

NWNNE
WE
SWSSE
Home            
Bronnoysund / Bronnoy Mosjoen Kjaerstad Sandnessjoen / Stokka Rorvik / Ryum Namsos Lufthavn Mo I Rana / Rossvoll Bodo Vi Rost Flyplass Trondheim / Vaernes Orland Iii Draugen Gunnarn Ostersund / Froson Leknes Lycksele Roros Lufthavn Svolvaer / Helle Kristiansund / Kvernberget Jokkmokk Vidsel Storkmarknes / Skagen Kramfors Flygplats Molde / Aro

Om een weerknop op uw website of weblog te plaatsen, copieer onderstaande code en plak die in uw pagina. In het eerste vakje staat HTML-code, in het tweede vakje UBB-code.


Add to Google

Details

Wind speed:2 bf, 4 kn, 2.1 m/s, 4.6 miles/h, 7.4 km/h
Wind direction:N, 360°
Visibility:Greater than 10000 m, 10 km, 32800 ft, 6.2 miles
Clouds:CAVOC
Temperature:11°C, 52°F
Dew-point:8°C, 46°F
Atmospheric pressure:1023 hPa, 767.3 mmHg, 30.21 inHg, 1.010 atm
Relative humidity:81.7 %
METAR:ENBN 162020Z 36004KT CAVOK 11/08 Q1023

Snelkoppelingen

Actuele weersinformatie van de hele wereld. Voeg locaties toe met het plus (+) symbool. Deze snelkoppelingen kunnen worden toegevoegd aan Google.

Lid van de Technetium groep

website free tracking
StatCounter NetStat W3C Validator

25-11-2020 08:44:37
astro.technetium.be money.technetium.be phote.technetium.be tafeltennistafel.technetium.be www.ligfiets.net